createdAt,value
2019-01-31T00:00:30.412Z,1.60
2019-01-31T00:03:16.209Z,1.60
2019-01-31T00:06:00.211Z,1.50
2019-01-31T00:09:00.330Z,1.60
2019-01-31T00:11:46.649Z,1.50
2019-01-31T00:14:41.624Z,1.60
2019-01-31T00:18:03.100Z,1.60
2019-01-31T00:20:58.679Z,1.50
2019-01-31T00:23:56.802Z,1.60
2019-01-31T00:26:45.488Z,1.60
2019-01-31T00:29:26.773Z,1.50
2019-01-31T00:32:35.640Z,1.50
2019-01-31T00:35:51.981Z,1.50
2019-01-31T00:38:56.587Z,1.50
2019-01-31T00:41:37.608Z,1.60
2019-01-31T00:44:44.996Z,1.60
2019-01-31T00:47:58.360Z,1.60
2019-01-31T00:50:52.235Z,1.60
2019-01-31T00:53:49.372Z,1.60
2019-01-31T00:57:05.308Z,1.60
2019-01-31T01:00:03.222Z,1.60
2019-01-31T01:02:41.142Z,1.60
2019-01-31T01:05:32.164Z,1.60
2019-01-31T01:08:25.518Z,1.60
2019-01-31T01:11:16.082Z,1.60
2019-01-31T01:14:15.041Z,1.60
2019-01-31T01:17:12.161Z,1.60
2019-01-31T01:20:03.664Z,1.60
2019-01-31T01:23:13.316Z,1.60
2019-01-31T01:26:07.344Z,1.60
2019-01-31T01:29:36.024Z,1.60
2019-01-31T01:32:55.228Z,1.60
2019-01-31T01:35:57.316Z,1.70
2019-01-31T01:38:47.738Z,1.70
2019-01-31T01:41:41.120Z,1.70
2019-01-31T01:44:28.433Z,1.70
2019-01-31T01:47:19.880Z,1.70
2019-01-31T01:50:06.393Z,1.70
2019-01-31T01:53:17.748Z,1.70
2019-01-31T01:56:30.180Z,1.70
2019-01-31T01:59:41.960Z,1.70
2019-01-31T02:02:46.096Z,1.70
2019-01-31T02:05:51.356Z,1.70
2019-01-31T02:08:51.786Z,1.70
2019-01-31T02:11:58.776Z,1.70
2019-01-31T02:14:57.197Z,1.70
2019-01-31T02:18:03.185Z,1.70
2019-01-31T02:21:22.829Z,1.70
2019-01-31T02:24:37.336Z,1.70
2019-01-31T02:27:28.988Z,1.70
2019-01-31T02:30:07.618Z,1.70
2019-01-31T02:33:06.378Z,1.70
2019-01-31T02:36:10.789Z,1.70
2019-01-31T02:39:15.088Z,1.70
2019-01-31T02:42:22.108Z,1.70
2019-01-31T02:45:13.013Z,1.70
2019-01-31T02:48:28.116Z,1.70
2019-01-31T02:51:12.386Z,1.70
2019-01-31T02:54:07.519Z,1.70
2019-01-31T02:57:00.872Z,1.70
2019-01-31T02:59:58.232Z,1.60
2019-01-31T03:02:38.904Z,1.60
2019-01-31T03:05:25.989Z,1.60
2019-01-31T03:08:30.286Z,1.60
2019-01-31T03:11:10.372Z,1.60
2019-01-31T03:14:11.171Z,1.60
2019-01-31T03:17:39.996Z,1.60
2019-01-31T03:20:36.793Z,1.60
2019-01-31T03:23:45.606Z,1.50
2019-01-31T03:26:34.780Z,1.50
2019-01-31T03:29:30.685Z,1.50
2019-01-31T03:32:41.063Z,1.50
2019-01-31T03:35:27.574Z,1.50
2019-01-31T03:38:12.164Z,1.50
2019-01-31T03:41:02.525Z,1.50
2019-01-31T03:43:59.861Z,1.50
2019-01-31T03:47:02.508Z,1.50
2019-01-31T03:50:08.970Z,1.50
2019-01-31T03:53:10.473Z,1.50
2019-01-31T03:56:04.924Z,1.50
2019-01-31T03:59:13.508Z,1.50
2019-01-31T04:02:10.942Z,1.50
2019-01-31T04:04:44.968Z,1.50
2019-01-31T04:07:14.216Z,1.50
2019-01-31T04:09:43.455Z,1.50
2019-01-31T04:12:12.653Z,1.50
2019-01-31T04:14:41.983Z,1.50
2019-01-31T04:17:11.280Z,1.50
2019-01-31T04:19:40.523Z,1.50
2019-01-31T04:22:09.713Z,1.50
2019-01-31T04:24:38.984Z,1.50
2019-01-31T04:27:08.165Z,1.50
2019-01-31T04:29:37.409Z,1.50
2019-01-31T04:32:06.622Z,1.50
2019-01-31T04:34:35.825Z,1.50
2019-01-31T04:37:05.130Z,1.50
2019-01-31T04:39:34.341Z,1.50
2019-01-31T04:42:03.610Z,1.50
2019-01-31T04:44:32.813Z,1.50
2019-01-31T04:47:02.037Z,1.50
2019-01-31T04:49:31.238Z,1.50
2019-01-31T04:52:00.477Z,1.50
2019-01-31T04:54:29.711Z,1.50
2019-01-31T04:56:58.977Z,1.50
2019-01-31T04:59:28.160Z,1.50
2019-01-31T05:01:57.415Z,1.50
2019-01-31T05:04:26.615Z,1.50
2019-01-31T05:06:55.861Z,1.50
2019-01-31T05:09:25.093Z,1.50
2019-01-31T05:11:54.348Z,1.50
2019-01-31T05:14:23.618Z,1.50
2019-01-31T05:16:52.868Z,1.50
2019-01-31T05:19:22.087Z,1.50
2019-01-31T05:21:51.347Z,1.50
2019-01-31T05:24:20.581Z,1.50
2019-01-31T05:26:49.811Z,1.50
2019-01-31T05:29:18.987Z,1.50
2019-01-31T05:31:48.205Z,1.50
2019-01-31T05:34:17.562Z,1.50
2019-01-31T05:36:46.742Z,1.50
2019-01-31T05:39:15.976Z,1.50
2019-01-31T05:41:45.276Z,1.50
2019-01-31T05:44:14.532Z,1.50
2019-01-31T05:46:43.736Z,1.50
2019-01-31T05:49:13.179Z,1.50
2019-01-31T05:51:42.379Z,1.50
2019-01-31T05:54:11.704Z,1.50
2019-01-31T05:56:40.932Z,1.50
2019-01-31T05:59:10.166Z,1.50
2019-01-31T06:01:39.374Z,1.50
2019-01-31T06:04:08.597Z,1.50
2019-01-31T06:06:37.892Z,1.50
2019-01-31T06:09:09.061Z,1.60
2019-01-31T06:11:38.709Z,1.50
2019-01-31T06:14:08.124Z,1.60
2019-01-31T06:16:37.324Z,1.60
2019-01-31T06:19:06.565Z,1.60
2019-01-31T06:21:35.797Z,1.50
2019-01-31T06:24:05.012Z,1.50
2019-01-31T06:26:34.233Z,1.50
2019-01-31T06:29:03.473Z,1.50
2019-01-31T06:31:32.683Z,1.40
2019-01-31T06:34:01.900Z,1.40
2019-01-31T06:36:31.141Z,1.40
2019-01-31T06:39:00.384Z,1.40
2019-01-31T06:41:29.605Z,1.40
2019-01-31T06:43:58.836Z,1.40
2019-01-31T06:46:28.037Z,1.30
2019-01-31T06:48:57.290Z,1.30
2019-01-31T06:51:26.496Z,1.40
2019-01-31T06:53:55.797Z,1.40
2019-01-31T06:56:25.004Z,1.40
2019-01-31T06:58:54.236Z,1.40
2019-01-31T07:01:23.456Z,1.40
2019-01-31T07:03:52.660Z,1.40
2019-01-31T07:06:21.899Z,1.40
2019-01-31T07:08:51.195Z,1.40
2019-01-31T07:11:29.637Z,1.40
2019-01-31T07:13:51.295Z,1.40
2019-01-31T07:16:20.528Z,1.50
2019-01-31T07:18:49.745Z,1.50
2019-01-31T07:21:18.970Z,1.50
2019-01-31T07:23:48.162Z,1.50
2019-01-31T07:26:17.393Z,1.50
2019-01-31T07:28:46.617Z,1.50
2019-01-31T07:31:15.845Z,1.50
2019-01-31T07:33:45.045Z,1.50
2019-01-31T07:36:14.296Z,1.60
2019-01-31T07:38:43.575Z,1.60
2019-01-31T07:41:12.797Z,1.60
2019-01-31T07:43:42.023Z,1.60
2019-01-31T07:46:11.248Z,1.60
2019-01-31T07:48:40.448Z,1.60
2019-01-31T07:51:09.757Z,1.70
2019-01-31T07:53:38.943Z,1.70
2019-01-31T07:56:08.281Z,1.70
2019-01-31T07:58:37.491Z,1.70
2019-01-31T08:01:06.705Z,1.80
2019-01-31T08:03:35.993Z,1.80
2019-01-31T08:06:05.197Z,1.80
2019-01-31T08:08:34.493Z,1.80
2019-01-31T08:11:03.876Z,1.90
2019-01-31T08:13:33.181Z,1.90
2019-01-31T08:16:02.412Z,1.90
2019-01-31T08:18:31.657Z,2.00
2019-01-31T08:21:00.864Z,2.00
2019-01-31T08:23:30.103Z,2.00
2019-01-31T08:25:59.316Z,2.00
2019-01-31T08:28:29.408Z,2.00
2019-01-31T08:30:58.729Z,2.00
2019-01-31T08:33:28.502Z,2.10
2019-01-31T08:35:57.984Z,2.10
2019-01-31T08:38:27.198Z,2.10
2019-01-31T08:40:56.420Z,2.10
2019-01-31T08:43:25.676Z,2.20
2019-01-31T08:45:54.968Z,2.20
2019-01-31T08:48:24.276Z,2.30
2019-01-31T08:50:53.504Z,2.30
2019-01-31T08:53:22.719Z,2.40
2019-01-31T08:55:51.959Z,2.40
2019-01-31T08:58:21.232Z,2.50
2019-01-31T09:00:50.464Z,2.50
2019-01-31T09:03:19.828Z,2.60
2019-01-31T09:05:48.969Z,2.60
2019-01-31T09:08:18.180Z,2.60
2019-01-31T09:10:47.432Z,2.60
2019-01-31T09:13:16.661Z,2.60
2019-01-31T09:15:45.908Z,2.60
2019-01-31T09:18:15.121Z,2.70
2019-01-31T09:21:21.133Z,2.70
2019-01-31T09:24:23.520Z,2.70
2019-01-31T09:27:23.920Z,2.70
2019-01-31T09:30:08.643Z,2.70
2019-01-31T09:33:10.624Z,2.70
2019-01-31T09:36:05.389Z,2.70
2019-01-31T09:39:14.181Z,2.70
2019-01-31T09:42:04.081Z,2.70
2019-01-31T09:45:35.783Z,2.70
2019-01-31T09:48:49.378Z,2.80
2019-01-31T09:52:02.598Z,2.80
2019-01-31T09:55:08.101Z,2.90
2019-01-31T09:58:10.456Z,2.90
2019-01-31T10:01:14.239Z,2.90
2019-01-31T10:04:31.449Z,3.00
2019-01-31T10:07:41.172Z,3.00
2019-01-31T10:10:31.630Z,3.00
2019-01-31T10:13:32.169Z,3.10
2019-01-31T10:16:20.597Z,3.10
2019-01-31T10:19:35.008Z,3.00
2019-01-31T10:22:38.040Z,3.10
2019-01-31T10:25:42.740Z,3.10
2019-01-31T10:28:51.140Z,3.10
2019-01-31T10:31:47.904Z,3.10
2019-01-31T10:35:28.688Z,3.10
2019-01-31T10:38:44.141Z,3.20
2019-01-31T10:41:54.688Z,3.20
2019-01-31T10:45:06.115Z,3.20
2019-01-31T10:47:58.752Z,3.20
2019-01-31T10:51:09.272Z,3.20
2019-01-31T10:54:22.288Z,3.20
2019-01-31T10:57:19.353Z,3.30
2019-01-31T11:00:14.560Z,3.30
2019-01-31T11:03:27.633Z,3.40
2019-01-31T11:06:20.405Z,3.50
2019-01-31T11:09:15.080Z,3.50
2019-01-31T11:12:16.188Z,3.50
2019-01-31T11:15:26.704Z,3.50
2019-01-31T11:18:30.961Z,3.50
2019-01-31T11:21:27.156Z,3.50
2019-01-31T11:24:37.332Z,3.50
2019-01-31T11:27:28.121Z,3.50
2019-01-31T11:30:20.847Z,3.50
2019-01-31T11:33:26.237Z,3.50
2019-01-31T11:36:42.523Z,3.50
2019-01-31T11:39:55.313Z,3.60
2019-01-31T11:43:11.913Z,3.70
2019-01-31T11:46:35.107Z,3.90
2019-01-31T11:49:45.476Z,4.10
2019-01-31T11:52:59.033Z,4.20
2019-01-31T11:55:53.593Z,4.20
2019-01-31T11:58:57.697Z,4.10
2019-01-31T12:01:26.893Z,4.10
2019-01-31T12:04:05.827Z,4.00
2019-01-31T12:06:35.148Z,4.00
2019-01-31T12:09:07.137Z,4.00
2019-01-31T12:11:36.316Z,4.10
2019-01-31T12:14:05.647Z,4.20
2019-01-31T12:16:34.905Z,4.30
2019-01-31T12:19:04.145Z,4.30
2019-01-31T12:21:33.416Z,4.30
2019-01-31T12:24:02.646Z,4.30
2019-01-31T12:26:31.948Z,4.30
2019-01-31T12:29:01.202Z,4.40
2019-01-31T12:31:30.504Z,4.40
2019-01-31T12:33:59.817Z,4.50
2019-01-31T12:36:29.005Z,4.50
2019-01-31T12:38:58.309Z,4.40
2019-01-31T12:41:27.520Z,4.30
2019-01-31T12:43:56.754Z,4.30
2019-01-31T12:46:25.949Z,4.20
2019-01-31T12:48:55.190Z,4.30
2019-01-31T12:51:24.401Z,4.40
2019-01-31T12:53:53.662Z,4.50
2019-01-31T12:56:22.888Z,4.60
2019-01-31T12:58:52.153Z,4.70
2019-01-31T13:01:21.349Z,4.70
2019-01-31T13:03:50.580Z,4.70
2019-01-31T13:06:19.804Z,4.60
2019-01-31T13:08:49.230Z,4.60
2019-01-31T13:11:18.505Z,4.60
2019-01-31T13:13:47.729Z,4.50
2019-01-31T13:16:16.927Z,4.50
2019-01-31T13:18:46.529Z,4.40
2019-01-31T13:21:15.734Z,4.30
2019-01-31T13:23:45.001Z,4.30
2019-01-31T13:26:14.363Z,4.30
2019-01-31T13:28:43.739Z,4.30
2019-01-31T13:31:12.980Z,4.30
2019-01-31T13:33:42.468Z,4.30
2019-01-31T13:36:14.446Z,4.20
2019-01-31T13:38:43.688Z,4.20
2019-01-31T13:41:12.937Z,4.20
2019-01-31T13:43:42.138Z,4.20
2019-01-31T13:46:11.369Z,4.20
2019-01-31T13:48:40.647Z,4.20
2019-01-31T13:51:10.430Z,4.20
2019-01-31T13:53:39.628Z,4.20
2019-01-31T13:56:09.903Z,4.20
2019-01-31T13:58:39.202Z,4.20
2019-01-31T14:01:08.860Z,4.20
2019-01-31T14:03:38.058Z,4.20
2019-01-31T14:06:07.320Z,4.20
2019-01-31T14:08:36.538Z,4.20
2019-01-31T14:11:05.750Z,4.20
2019-01-31T14:13:35.029Z,4.20
2019-01-31T14:16:04.264Z,4.20
2019-01-31T14:18:33.651Z,4.30
2019-01-31T14:21:02.861Z,4.30
2019-01-31T14:23:32.152Z,4.20
2019-01-31T14:26:01.389Z,4.20
2019-01-31T14:28:30.672Z,4.20
2019-01-31T14:30:59.892Z,4.20
2019-01-31T14:33:29.269Z,4.30
2019-01-31T14:36:00.286Z,4.30
2019-01-31T14:38:29.501Z,4.40
2019-01-31T14:40:58.736Z,4.40
2019-01-31T14:43:27.914Z,4.40
2019-01-31T14:45:57.142Z,4.40
2019-01-31T14:48:26.361Z,4.30
2019-01-31T14:50:55.599Z,4.20
2019-01-31T14:53:24.805Z,4.20
2019-01-31T14:55:55.529Z,4.10
2019-01-31T14:58:24.940Z,4.00
2019-01-31T15:00:54.186Z,4.00
2019-01-31T15:03:23.413Z,4.00
2019-01-31T15:05:52.632Z,4.00
2019-01-31T15:08:21.853Z,4.00
2019-01-31T15:10:51.093Z,4.00
2019-01-31T15:13:20.292Z,3.90
2019-01-31T15:15:49.589Z,3.90
2019-01-31T15:18:18.797Z,3.80
2019-01-31T15:20:48.029Z,3.80
2019-01-31T15:23:17.241Z,3.70
2019-01-31T15:25:46.604Z,3.60
2019-01-31T15:28:15.807Z,3.60
2019-01-31T15:30:46.427Z,3.50
2019-01-31T15:33:15.688Z,3.40
2019-01-31T15:35:45.070Z,3.30
2019-01-31T15:38:14.253Z,3.20
2019-01-31T15:40:46.428Z,3.10
2019-01-31T15:43:15.797Z,3.00
2019-01-31T15:45:45.164Z,3.00
2019-01-31T15:48:14.699Z,2.90
2019-01-31T15:50:44.065Z,2.80
2019-01-31T15:53:13.525Z,2.70
2019-01-31T15:55:43.742Z,2.70
2019-01-31T15:58:13.130Z,2.60
2019-01-31T16:00:54.438Z,2.60
2019-01-31T16:03:24.973Z,2.50
2019-01-31T16:05:55.708Z,2.50
2019-01-31T16:08:25.397Z,2.50
2019-01-31T16:10:54.709Z,2.40
2019-01-31T16:13:24.027Z,2.30
2019-01-31T16:15:53.424Z,2.30
2019-01-31T16:18:22.961Z,2.20
2019-01-31T16:20:52.201Z,2.20
2019-01-31T16:23:21.412Z,2.10
2019-01-31T16:25:50.704Z,2.10
2019-01-31T16:28:19.898Z,2.00
2019-01-31T16:30:49.145Z,2.00
2019-01-31T16:33:18.404Z,1.90
2019-01-31T16:39:16.430Z,1.80
2019-01-31T16:41:45.997Z,1.80
2019-01-31T16:44:15.777Z,1.70
2019-01-31T16:46:45.323Z,1.70
2019-01-31T16:49:14.638Z,1.60
2019-01-31T16:51:45.526Z,1.60
2019-01-31T16:54:14.851Z,1.60
2019-01-31T16:56:44.109Z,1.60
2019-01-31T16:59:13.384Z,1.60
2019-01-31T17:01:42.688Z,1.60
2019-01-31T17:04:11.917Z,1.50
2019-01-31T17:06:41.149Z,1.50
2019-01-31T17:09:10.519Z,1.50
2019-01-31T17:11:39.732Z,1.40
2019-01-31T17:14:09.044Z,1.40
2019-01-31T17:16:38.271Z,1.40
2019-01-31T17:19:07.490Z,1.30
2019-01-31T17:21:36.740Z,1.30
2019-01-31T17:24:05.959Z,1.30
2019-01-31T17:26:35.236Z,1.20
2019-01-31T17:29:04.562Z,1.20
2019-01-31T17:31:33.792Z,1.20
2019-01-31T17:34:03.023Z,1.20
2019-01-31T17:36:32.229Z,1.10
2019-01-31T17:39:01.432Z,1.10
2019-01-31T17:41:30.669Z,1.10
2019-01-31T17:43:59.881Z,1.10
2019-01-31T17:46:29.212Z,1.00
2019-01-31T17:48:58.408Z,1.00
2019-01-31T17:51:27.695Z,1.00
2019-01-31T17:53:56.913Z,1.00
2019-01-31T17:56:26.162Z,0.90
2019-01-31T17:58:55.380Z,0.90
2019-01-31T18:01:24.690Z,0.90
2019-01-31T18:03:53.909Z,0.90
2019-01-31T18:06:23.135Z,0.80
2019-01-31T18:08:52.351Z,0.80
2019-01-31T18:11:21.577Z,0.80
2019-01-31T18:13:52.638Z,0.80
2019-01-31T18:16:21.704Z,0.80
2019-01-31T18:18:50.940Z,0.80
2019-01-31T18:21:20.180Z,0.70
2019-01-31T18:23:49.353Z,0.70
2019-01-31T18:26:18.692Z,0.70
2019-01-31T18:28:48.004Z,0.70
2019-01-31T18:31:17.242Z,0.70
2019-01-31T18:33:46.521Z,0.70
2019-01-31T18:36:15.788Z,0.70
2019-01-31T18:38:44.989Z,0.60
2019-01-31T18:41:14.209Z,0.60
2019-01-31T18:43:43.444Z,0.60
2019-01-31T18:46:12.811Z,0.60
2019-01-31T18:48:42.012Z,0.60
2019-01-31T18:51:11.304Z,0.60
2019-01-31T18:53:40.504Z,0.60
2019-01-31T18:56:09.820Z,0.60
2019-01-31T18:58:39.016Z,0.60
2019-01-31T19:01:08.409Z,0.60
2019-01-31T19:03:37.620Z,0.60
2019-01-31T19:06:07.256Z,0.70
2019-01-31T19:08:37.402Z,0.70
2019-01-31T19:11:06.563Z,0.80
2019-01-31T19:13:35.885Z,0.80
2019-01-31T19:16:05.866Z,0.80
2019-01-31T19:18:35.155Z,0.80
2019-01-31T19:21:04.507Z,0.80
2019-01-31T19:23:33.784Z,0.80
2019-01-31T19:26:03.059Z,0.80
2019-01-31T19:28:32.284Z,0.80
2019-01-31T19:31:01.525Z,0.70
2019-01-31T19:33:30.734Z,0.80
2019-01-31T19:36:00.207Z,0.80
2019-01-31T19:38:29.439Z,0.80
2019-01-31T19:40:58.916Z,0.70
2019-01-31T19:43:28.227Z,0.70
2019-01-31T19:45:57.465Z,0.70
2019-01-31T19:48:26.677Z,0.70
2019-01-31T19:50:56.096Z,0.60
2019-01-31T19:53:25.360Z,0.60
2019-01-31T19:55:54.640Z,0.50
2019-01-31T19:58:24.175Z,0.50
2019-01-31T20:00:53.399Z,0.50
2019-01-31T20:03:22.626Z,0.40
2019-01-31T20:05:51.882Z,0.40
2019-01-31T20:08:21.193Z,0.40
2019-01-31T20:10:50.530Z,0.30
2019-01-31T20:13:19.828Z,0.30
2019-01-31T20:15:49.117Z,0.30
2019-01-31T20:18:18.357Z,0.30
2019-01-31T20:20:47.653Z,0.20
2019-01-31T20:23:16.889Z,0.20
2019-01-31T20:25:46.287Z,0.10
2019-01-31T20:28:15.664Z,0.10
2019-01-31T20:30:44.960Z,0.10
2019-01-31T20:33:14.327Z,0.00
2019-01-31T20:35:43.755Z,0.00
2019-01-31T20:38:13.000Z,0.00
2019-01-31T20:40:43.435Z,-0.10
2019-01-31T20:43:12.809Z,-0.10
2019-01-31T20:45:42.130Z,-0.20
2019-01-31T20:48:11.464Z,-0.20
2019-01-31T20:50:42.060Z,-0.20
2019-01-31T20:53:11.397Z,-0.20
2019-01-31T20:55:40.753Z,-0.30
2019-01-31T20:58:10.296Z,-0.30
2019-01-31T21:00:41.910Z,-0.20
2019-01-31T21:03:11.715Z,-0.30
2019-01-31T21:05:41.900Z,-0.30
2019-01-31T21:08:12.621Z,-0.30
2019-01-31T21:10:41.949Z,-0.30
2019-01-31T21:13:11.432Z,-0.30
2019-01-31T21:15:40.762Z,-0.40
2019-01-31T21:18:10.274Z,-0.40
2019-01-31T21:20:39.636Z,-0.40
2019-01-31T21:23:09.670Z,-0.40
2019-01-31T21:25:38.912Z,-0.50
2019-01-31T21:28:08.429Z,-0.50
2019-01-31T21:30:41.838Z,-0.50
2019-01-31T21:33:11.253Z,-0.50
2019-01-31T21:35:40.493Z,-0.60
2019-01-31T21:38:09.801Z,-0.60
2019-01-31T21:40:39.884Z,-0.60
2019-01-31T21:43:09.190Z,-0.60
2019-01-31T21:45:38.713Z,-0.60
2019-01-31T21:48:09.461Z,-0.60
2019-01-31T21:50:38.704Z,-0.70
2019-01-31T21:53:09.548Z,-0.60
2019-01-31T21:55:38.904Z,-0.60
2019-01-31T21:58:08.614Z,-0.70
2019-01-31T22:00:38.128Z,-0.70
2019-01-31T22:03:08.391Z,-0.70
2019-01-31T22:05:37.724Z,-0.70
2019-01-31T22:08:07.613Z,-0.60
2019-01-31T22:10:36.861Z,-0.60
2019-01-31T22:13:06.336Z,-0.60
2019-01-31T22:15:36.307Z,-0.60
2019-01-31T22:18:06.573Z,-0.60
2019-01-31T22:20:35.868Z,-0.70
2019-01-31T22:23:05.393Z,-0.70
2019-01-31T22:25:34.602Z,-0.70
2019-01-31T22:28:04.090Z,-0.70
2019-01-31T22:30:35.429Z,-0.70
2019-01-31T22:33:05.439Z,-0.70
2019-01-31T22:35:34.798Z,-0.70
2019-01-31T22:38:04.333Z,-0.70
2019-01-31T22:40:33.549Z,-0.70
2019-01-31T22:43:02.808Z,-0.70
2019-01-31T22:45:32.047Z,-0.60
2019-01-31T22:48:01.240Z,-0.70
2019-01-31T22:50:30.547Z,-0.70
2019-01-31T22:52:59.756Z,-0.70
2019-01-31T22:55:28.993Z,-0.70
2019-01-31T22:57:58.312Z,-0.70
2019-01-31T23:01:11.871Z,-0.70
2019-01-31T23:03:41.142Z,-0.70
2019-01-31T23:06:13.000Z,-0.70
2019-01-31T23:08:42.293Z,-0.70
2019-01-31T23:11:11.445Z,-0.80
2019-01-31T23:13:40.657Z,-0.70
2019-01-31T23:16:09.991Z,-0.80
2019-01-31T23:18:39.273Z,-0.80
2019-01-31T23:21:08.492Z,-0.80
2019-01-31T23:23:37.715Z,-0.80
2019-01-31T23:26:07.133Z,-0.80
2019-01-31T23:28:36.373Z,-0.80
2019-01-31T23:31:05.673Z,-0.80
2019-01-31T23:33:35.001Z,-0.80
2019-01-31T23:36:04.940Z,-0.80
2019-01-31T23:38:34.268Z,-0.80
2019-01-31T23:41:03.553Z,-0.80
2019-01-31T23:43:32.765Z,-0.80
2019-01-31T23:46:02.016Z,-0.80
2019-01-31T23:48:31.330Z,-0.80
2019-01-31T23:51:00.572Z,-0.80
2019-01-31T23:53:29.788Z,-0.90
2019-01-31T23:55:59.043Z,-0.90
2019-01-31T23:58:28.261Z,-0.90
